createdAt,value
2022-12-18T00:02:03.254Z,12.10
2022-12-18T00:04:32.549Z,13.68
2022-12-18T00:07:02.983Z,11.88
2022-12-18T00:09:40.138Z,12.10
2022-12-18T00:14:49.461Z,14.87
2022-12-18T00:17:20.679Z,13.23
2022-12-18T00:19:49.956Z,14.10
2022-12-18T00:22:31.308Z,12.65
2022-12-18T00:25:01.286Z,13.27
2022-12-18T00:27:30.691Z,13.27
2022-12-18T00:29:59.539Z,13.93
2022-12-18T00:32:28.505Z,11.57
2022-12-18T00:34:58.629Z,13.20
2022-12-18T00:37:31.794Z,10.95
2022-12-18T00:40:12.554Z,13.20
2022-12-18T00:42:57.571Z,13.50
2022-12-18T00:45:30.015Z,12.50
2022-12-18T00:48:01.659Z,14.07
2022-12-18T00:50:31.708Z,11.98
2022-12-18T00:53:05.106Z,14.70
2022-12-18T00:55:35.422Z,15.10
2022-12-18T00:58:04.883Z,14.95
2022-12-18T01:00:33.755Z,10.32
2022-12-18T01:03:02.690Z,12.73
2022-12-18T01:05:31.559Z,13.40
2022-12-18T01:08:02.220Z,17.85
2022-12-18T01:10:32.479Z,18.33
2022-12-18T01:13:01.267Z,12.93
2022-12-18T01:15:30.109Z,14.38
2022-12-18T01:17:58.960Z,11.17
2022-12-18T01:20:29.297Z,11.93
2022-12-18T01:22:58.073Z,14.00
2022-12-18T01:25:26.844Z,14.52
2022-12-18T01:27:57.292Z,12.77
2022-12-18T01:30:27.640Z,15.37
2022-12-18T01:32:58.143Z,16.85
2022-12-18T01:35:29.106Z,14.73
2022-12-18T01:37:58.717Z,14.32
2022-12-18T01:40:27.718Z,13.38
2022-12-18T01:42:58.547Z,17.13
2022-12-18T01:45:31.721Z,14.63
2022-12-18T01:48:03.927Z,17.67
2022-12-18T01:50:40.571Z,14.10
2022-12-18T01:53:16.158Z,16.90
2022-12-18T01:55:49.055Z,13.67
2022-12-18T01:58:23.578Z,13.02
2022-12-18T02:00:57.269Z,13.20
2022-12-18T02:03:25.960Z,15.98
2022-12-18T02:06:08.236Z,14.98
2022-12-18T02:08:50.750Z,11.57
2022-12-18T02:11:37.010Z,14.30
2022-12-18T02:14:23.487Z,12.05
2022-12-18T02:17:02.304Z,13.02
2022-12-18T02:19:56.228Z,14.68
2022-12-18T02:22:38.015Z,15.40
2022-12-18T02:25:32.143Z,13.07
2022-12-18T02:28:08.569Z,13.55
2022-12-18T02:30:39.989Z,14.15
2022-12-18T02:33:13.432Z,20.17
2022-12-18T02:35:47.009Z,20.27
2022-12-18T02:38:19.077Z,14.35
2022-12-18T02:40:53.413Z,15.77
2022-12-18T02:43:23.749Z,16.98
2022-12-18T02:45:57.181Z,17.13
2022-12-18T02:48:31.547Z,21.77
2022-12-18T02:51:11.643Z,20.83
2022-12-18T02:53:50.403Z,20.77
2022-12-18T02:56:26.957Z,17.25
2022-12-18T02:59:04.890Z,17.02
2022-12-18T03:01:55.168Z,16.10
2022-12-18T03:04:31.864Z,15.55
2022-12-18T03:07:16.405Z,20.63
2022-12-18T03:09:52.374Z,18.05
2022-12-18T03:12:29.140Z,17.35
2022-12-18T03:15:13.207Z,15.73
2022-12-18T03:17:54.763Z,17.95
2022-12-18T03:20:32.773Z,15.82
2022-12-18T03:23:11.366Z,19.67
2022-12-18T03:25:45.142Z,19.17
2022-12-18T03:28:22.642Z,18.73
2022-12-18T03:31:02.666Z,20.27
2022-12-18T03:33:41.126Z,17.02
2022-12-18T03:36:10.758Z,23.38
2022-12-18T03:38:40.853Z,16.48
2022-12-18T03:41:22.220Z,24.13
2022-12-18T03:44:31.224Z,18.75
2022-12-18T03:47:10.402Z,12.40
2022-12-18T03:49:50.255Z,17.73
2022-12-18T03:52:29.181Z,19.73
2022-12-18T03:55:02.273Z,14.93
2022-12-18T03:57:34.411Z,18.35
2022-12-18T04:00:10.479Z,14.77
2022-12-18T04:03:10.036Z,18.60
2022-12-18T04:05:49.492Z,17.75
2022-12-18T04:08:21.962Z,11.90
2022-12-18T04:10:59.714Z,17.55
2022-12-18T04:13:33.956Z,17.20
2022-12-18T04:16:04.930Z,17.35
2022-12-18T04:18:36.613Z,16.40
2022-12-18T04:21:06.478Z,12.13
2022-12-18T04:23:35.681Z,16.73
2022-12-18T04:26:04.910Z,12.73
2022-12-18T04:28:52.660Z,16.05
2022-12-18T04:31:21.528Z,16.75
2022-12-18T04:33:52.031Z,20.67
2022-12-18T04:36:21.065Z,22.55
2022-12-18T04:38:51.601Z,19.65
2022-12-18T04:41:20.699Z,17.20
2022-12-18T04:43:50.925Z,16.40
2022-12-18T04:46:19.861Z,17.90
2022-12-18T04:48:49.466Z,15.57
2022-12-18T04:51:24.762Z,19.42
2022-12-18T04:53:55.611Z,18.08
2022-12-18T04:56:25.092Z,13.32
2022-12-18T04:58:53.927Z,15.03
2022-12-18T05:01:22.698Z,18.20
2022-12-18T05:03:55.981Z,20.13
2022-12-18T05:06:26.145Z,20.88
2022-12-18T05:08:56.225Z,16.40
2022-12-18T05:11:25.077Z,18.60
2022-12-18T05:13:53.798Z,14.50
2022-12-18T05:16:27.377Z,18.25
2022-12-18T05:18:58.096Z,14.95
2022-12-18T05:21:28.263Z,19.27
2022-12-18T05:23:57.038Z,19.20
2022-12-18T05:26:25.746Z,19.65
2022-12-18T05:28:54.408Z,15.65
2022-12-18T05:31:23.935Z,20.98
2022-12-18T05:33:52.718Z,23.15
2022-12-18T05:36:21.402Z,20.97
2022-12-18T05:38:51.479Z,18.63
2022-12-18T05:41:20.205Z,18.40
2022-12-18T05:43:48.995Z,17.15
2022-12-18T05:46:19.759Z,17.65
2022-12-18T05:48:49.366Z,18.37
2022-12-18T05:51:21.992Z,23.27
2022-12-18T05:53:52.103Z,19.48
2022-12-18T05:56:25.279Z,20.38
2022-12-18T05:58:55.729Z,14.82
2022-12-18T06:01:27.595Z,17.50
2022-12-18T06:03:57.784Z,20.83
2022-12-18T06:06:29.607Z,18.30
2022-12-18T06:09:00.252Z,14.38
2022-12-18T06:11:29.696Z,14.60
2022-12-18T06:14:00.265Z,19.83
2022-12-18T06:16:30.751Z,17.88
2022-12-18T06:19:00.530Z,22.70
2022-12-18T06:21:29.867Z,19.98
2022-12-18T06:24:00.500Z,19.95
2022-12-18T06:26:29.361Z,22.67
2022-12-18T06:28:58.236Z,20.08
2022-12-18T06:31:28.435Z,24.42
2022-12-18T06:33:58.000Z,23.00
2022-12-18T06:36:26.944Z,18.42
2022-12-18T06:38:55.620Z,20.17
2022-12-18T06:41:25.909Z,29.70
2022-12-18T06:43:59.560Z,31.05
2022-12-18T06:46:28.960Z,47.72
2022-12-18T06:48:57.733Z,38.53
2022-12-18T06:51:26.919Z,27.87
2022-12-18T06:53:55.573Z,36.70
2022-12-18T06:56:25.825Z,33.20
2022-12-18T06:58:54.923Z,41.65
2022-12-18T07:01:25.099Z,49.17
2022-12-18T07:03:55.904Z,30.53
2022-12-18T07:06:27.506Z,36.63
2022-12-18T07:08:57.310Z,33.55
2022-12-18T07:11:27.437Z,39.75
2022-12-18T07:13:56.587Z,27.00
2022-12-18T07:16:26.126Z,31.77
2022-12-18T07:18:56.267Z,31.30
2022-12-18T07:21:27.007Z,33.30
2022-12-18T07:23:55.949Z,26.08
2022-12-18T07:26:27.387Z,37.85
2022-12-18T07:28:59.134Z,36.83
2022-12-18T07:31:28.865Z,33.00
2022-12-18T07:33:58.073Z,30.25
2022-12-18T07:36:28.529Z,25.95
2022-12-18T07:38:57.355Z,43.67
2022-12-18T07:41:27.390Z,24.27
2022-12-18T07:43:56.040Z,16.30
2022-12-18T07:46:25.136Z,27.92
2022-12-18T07:48:54.074Z,25.20
2022-12-18T07:51:22.955Z,18.30
2022-12-18T07:53:52.413Z,23.37
2022-12-18T07:56:27.776Z,27.15
2022-12-18T07:58:59.485Z,26.75
2022-12-18T08:01:37.391Z,28.35
2022-12-18T08:04:06.559Z,29.15
2022-12-18T08:06:35.287Z,22.50
2022-12-18T08:09:04.611Z,25.75
2022-12-18T08:11:33.615Z,25.30
2022-12-18T08:14:03.711Z,25.40
2022-12-18T08:16:33.702Z,26.42
2022-12-18T08:19:02.722Z,22.50
2022-12-18T08:21:33.349Z,23.85
2022-12-18T08:24:03.783Z,20.50
2022-12-18T08:26:33.705Z,24.17
2022-12-18T08:29:04.264Z,24.80
2022-12-18T08:31:34.053Z,19.97
2022-12-18T08:34:02.973Z,22.55
2022-12-18T08:36:31.715Z,14.27
2022-12-18T08:39:00.408Z,14.63
2022-12-18T08:41:29.228Z,23.75
2022-12-18T08:44:15.447Z,41.97
2022-12-18T08:46:46.521Z,17.73
2022-12-18T08:49:15.688Z,21.02
2022-12-18T08:51:44.540Z,25.20
2022-12-18T08:54:15.166Z,26.45
2022-12-18T08:56:44.018Z,13.37
2022-12-18T08:59:19.157Z,14.15
2022-12-18T09:01:49.968Z,18.60
2022-12-18T09:04:18.888Z,17.08
2022-12-18T09:06:47.622Z,17.50
2022-12-18T09:09:16.395Z,22.10
2022-12-18T09:11:45.159Z,16.38
2022-12-18T09:14:13.817Z,18.30
2022-12-18T09:16:43.500Z,16.08
2022-12-18T09:19:15.592Z,14.23
2022-12-18T09:21:51.976Z,17.53
2022-12-18T09:24:29.283Z,20.50
2022-12-18T09:26:58.315Z,14.18
2022-12-18T09:29:27.111Z,15.50
2022-12-18T09:31:55.850Z,28.25
2022-12-18T09:34:26.140Z,11.37
2022-12-18T09:36:54.975Z,12.45
2022-12-18T09:39:24.487Z,20.15
2022-12-18T09:41:55.813Z,13.05
2022-12-18T09:44:30.222Z,16.75
2022-12-18T09:47:11.740Z,10.73
2022-12-18T09:49:46.109Z,16.23
2022-12-18T09:52:23.925Z,20.67
2022-12-18T09:55:00.244Z,17.35
2022-12-18T09:57:29.164Z,13.63
2022-12-18T10:00:05.452Z,13.00
2022-12-18T10:02:40.850Z,18.27
2022-12-18T10:05:16.452Z,18.10
2022-12-18T10:08:01.907Z,21.60
2022-12-18T10:10:41.829Z,14.98
2022-12-18T10:13:24.095Z,15.80
2022-12-18T10:16:09.741Z,19.48
2022-12-18T10:19:07.205Z,18.15
2022-12-18T10:21:48.162Z,18.02
2022-12-18T10:24:26.930Z,13.13
2022-12-18T10:27:07.111Z,17.70
2022-12-18T10:29:35.875Z,15.43
2022-12-18T10:32:04.676Z,13.57
2022-12-18T10:34:33.418Z,15.48
2022-12-18T10:37:14.125Z,9.88
2022-12-18T10:39:42.811Z,13.40
2022-12-18T10:42:18.449Z,13.55
2022-12-18T10:44:47.686Z,12.35
2022-12-18T10:47:21.300Z,12.00
2022-12-18T10:49:56.098Z,10.25
2022-12-18T10:52:29.645Z,13.17
2022-12-18T10:55:05.167Z,12.40
2022-12-18T10:57:39.104Z,10.73
2022-12-18T11:00:38.175Z,13.30
2022-12-18T11:03:38.063Z,14.35
2022-12-18T11:06:12.855Z,12.43
2022-12-18T11:08:44.364Z,11.10
2022-12-18T11:11:25.215Z,10.73
2022-12-18T11:14:08.936Z,9.10
2022-12-18T11:17:02.986Z,11.55
2022-12-18T11:19:40.855Z,10.87
2022-12-18T11:22:23.874Z,9.00
2022-12-18T11:25:30.657Z,9.05
2022-12-18T11:27:53.265Z,11.18
2022-12-18T11:30:30.683Z,7.05
2022-12-18T11:33:06.458Z,9.10
2022-12-18T11:35:47.850Z,12.25
2022-12-18T11:38:26.461Z,14.23
2022-12-18T11:41:02.772Z,10.57
2022-12-18T11:43:38.013Z,10.50
2022-12-18T11:46:19.414Z,10.23
2022-12-18T11:48:58.728Z,10.98
2022-12-18T11:51:37.526Z,12.57
2022-12-18T11:54:18.146Z,10.38
2022-12-18T11:56:53.482Z,11.80
2022-12-18T11:59:35.384Z,12.17
2022-12-18T12:02:25.397Z,13.73
2022-12-18T12:05:21.243Z,11.70
2022-12-18T12:08:02.059Z,13.82
2022-12-18T12:10:48.914Z,13.02
2022-12-18T12:13:34.735Z,10.73
2022-12-18T12:16:18.846Z,12.25
2022-12-18T12:19:18.618Z,12.23
2022-12-18T12:21:56.672Z,10.65
2022-12-18T12:24:48.097Z,17.23
2022-12-18T12:27:32.245Z,13.70
2022-12-18T12:30:20.960Z,14.37
2022-12-18T12:33:24.584Z,15.70
2022-12-18T12:36:07.698Z,15.38
2022-12-18T12:38:49.880Z,13.20
2022-12-18T12:41:44.506Z,14.02
2022-12-18T12:44:24.238Z,12.03
2022-12-18T12:47:01.669Z,13.80
2022-12-18T12:49:40.453Z,10.35
2022-12-18T12:52:18.953Z,17.67
2022-12-18T12:54:49.430Z,13.57
2022-12-18T12:57:25.520Z,12.73
2022-12-18T13:00:05.488Z,10.40
2022-12-18T13:02:44.919Z,9.70
2022-12-18T13:05:25.840Z,10.63
2022-12-18T13:08:03.809Z,10.48
2022-12-18T13:10:38.860Z,12.03
2022-12-18T13:13:11.052Z,8.07
2022-12-18T13:15:44.263Z,11.40
2022-12-18T13:18:26.480Z,11.18
2022-12-18T13:21:15.025Z,15.15
2022-12-18T13:23:45.160Z,13.30
2022-12-18T13:26:35.419Z,13.00
2022-12-18T13:29:07.196Z,14.85
2022-12-18T13:32:04.052Z,6.63
2022-12-18T13:34:33.809Z,16.83
2022-12-18T13:37:43.014Z,13.87
2022-12-18T13:41:00.327Z,17.00
2022-12-18T13:43:55.168Z,10.93
2022-12-18T13:46:32.930Z,13.40
2022-12-18T13:49:07.582Z,15.93
2022-12-18T13:51:37.763Z,9.17
2022-12-18T13:54:22.283Z,16.52
2022-12-18T13:56:52.228Z,14.80
2022-12-18T13:59:24.903Z,15.23
2022-12-18T14:01:58.740Z,14.50
2022-12-18T14:04:30.693Z,13.10
2022-12-18T14:07:06.463Z,13.20
2022-12-18T14:09:42.094Z,12.68
2022-12-18T14:12:37.034Z,17.05
2022-12-18T14:15:20.282Z,11.20
2022-12-18T14:17:54.049Z,15.83
2022-12-18T14:20:23.546Z,10.77
2022-12-18T14:22:53.470Z,12.32
2022-12-18T14:25:25.533Z,16.83
2022-12-18T14:28:17.921Z,13.15
2022-12-18T14:30:48.591Z,10.87
2022-12-18T14:33:24.773Z,13.15
2022-12-18T14:36:01.740Z,13.90
2022-12-18T14:38:33.507Z,11.10
2022-12-18T14:41:05.685Z,12.15
2022-12-18T14:43:38.074Z,16.03
2022-12-18T14:46:27.965Z,13.95
2022-12-18T14:48:59.459Z,14.82
2022-12-18T14:51:30.523Z,10.68
2022-12-18T14:54:02.560Z,11.02
2022-12-18T14:56:34.985Z,11.53
2022-12-18T14:59:08.108Z,13.85
2022-12-18T15:01:40.487Z,9.15
2022-12-18T15:04:29.187Z,11.32
2022-12-18T15:07:20.105Z,12.60
2022-12-18T15:10:11.673Z,13.40
2022-12-18T15:12:44.383Z,6.13
2022-12-18T15:15:51.343Z,8.27
2022-12-18T15:18:23.023Z,11.27
2022-12-18T15:20:56.212Z,23.77
2022-12-18T15:23:28.625Z,15.23
2022-12-18T15:26:00.939Z,11.10
2022-12-18T15:28:35.896Z,11.80
2022-12-18T15:31:09.161Z,8.13
2022-12-18T15:33:40.666Z,10.20
2022-12-18T15:36:14.719Z,9.17
2022-12-18T15:38:43.707Z,7.60
2022-12-18T15:41:18.918Z,8.48
2022-12-18T15:43:53.136Z,10.25
2022-12-18T15:46:24.639Z,9.35
2022-12-18T15:49:01.377Z,12.63
2022-12-18T15:51:36.329Z,12.73
2022-12-18T15:54:08.834Z,13.32
2022-12-18T15:56:53.980Z,11.27
2022-12-18T15:59:23.765Z,13.10
2022-12-18T16:01:55.252Z,13.77
2022-12-18T16:04:25.864Z,11.77
2022-12-18T16:07:14.564Z,14.90
2022-12-18T16:09:44.094Z,10.70
2022-12-18T16:12:20.219Z,14.07
2022-12-18T16:14:49.389Z,11.27
2022-12-18T16:17:18.438Z,11.30
2022-12-18T16:19:47.298Z,12.48
2022-12-18T16:22:23.878Z,14.35
2022-12-18T16:24:54.025Z,10.30
2022-12-18T16:27:24.224Z,13.50
2022-12-18T16:29:53.487Z,10.13
2022-12-18T16:32:24.489Z,12.15
2022-12-18T16:34:53.467Z,9.88
2022-12-18T16:37:26.611Z,9.77
2022-12-18T16:39:55.730Z,9.83
2022-12-18T16:42:25.412Z,9.52
2022-12-18T16:44:55.701Z,4.88
2022-12-18T16:47:24.470Z,11.85
2022-12-18T16:49:53.705Z,12.85
2022-12-18T16:52:23.545Z,15.00
2022-12-18T16:54:54.453Z,9.18
2022-12-18T16:57:25.339Z,12.23
2022-12-18T16:59:56.071Z,3.08
2022-12-18T17:02:29.414Z,11.38
2022-12-18T17:04:59.832Z,10.30
2022-12-18T17:07:29.468Z,10.52
2022-12-18T17:09:59.708Z,13.02
2022-12-18T17:12:28.596Z,9.27
2022-12-18T17:14:57.372Z,11.57
2022-12-18T17:17:34.647Z,11.93
2022-12-18T17:20:03.437Z,10.88
2022-12-18T17:22:32.509Z,9.80
2022-12-18T17:25:03.135Z,12.90
2022-12-18T17:27:32.061Z,10.60
2022-12-18T17:30:00.695Z,11.23
2022-12-18T17:32:29.616Z,10.65
2022-12-18T17:35:02.583Z,16.38
2022-12-18T17:37:34.425Z,11.20
2022-12-18T17:40:05.176Z,10.23
2022-12-18T17:42:34.141Z,11.07
2022-12-18T17:45:02.889Z,9.07
2022-12-18T17:47:32.534Z,12.90
2022-12-18T17:50:01.274Z,11.88
2022-12-18T17:52:30.494Z,10.98
2022-12-18T17:54:59.336Z,12.60
2022-12-18T17:57:29.750Z,15.68
2022-12-18T17:59:58.522Z,11.13
2022-12-18T18:02:27.526Z,15.07
2022-12-18T18:04:57.260Z,15.10
2022-12-18T18:07:26.037Z,14.07
2022-12-18T18:09:54.824Z,21.83
2022-12-18T18:12:40.668Z,14.18
2022-12-18T18:15:13.007Z,15.82
2022-12-18T18:17:41.698Z,11.95
2022-12-18T18:20:12.203Z,13.13
2022-12-18T18:22:41.049Z,15.68
2022-12-18T18:25:09.923Z,14.07
2022-12-18T18:27:39.506Z,12.57
2022-12-18T18:30:12.447Z,15.60
2022-12-18T18:32:41.427Z,10.63
2022-12-18T18:35:24.553Z,11.43
2022-12-18T18:37:53.486Z,14.50
2022-12-18T18:40:22.567Z,8.15
2022-12-18T18:42:54.065Z,12.50
2022-12-18T18:45:24.278Z,11.23
2022-12-18T18:47:53.036Z,9.55
2022-12-18T18:50:21.766Z,9.35
2022-12-18T18:52:50.493Z,18.30
2022-12-18T18:55:25.493Z,16.50
2022-12-18T18:57:54.799Z,15.27
2022-12-18T19:00:24.953Z,13.32
2022-12-18T19:02:59.020Z,12.65
2022-12-18T19:05:29.342Z,11.15
2022-12-18T19:07:58.586Z,8.38
2022-12-18T19:10:27.355Z,11.70
2022-12-18T19:13:13.575Z,12.02
2022-12-18T19:15:43.801Z,13.20
2022-12-18T19:18:12.695Z,13.00
2022-12-18T19:20:41.699Z,14.57
2022-12-18T19:23:10.588Z,15.23
2022-12-18T19:25:41.585Z,11.07
2022-12-18T19:28:21.188Z,13.68
2022-12-18T19:30:57.330Z,12.75
2022-12-18T19:33:45.382Z,10.93
2022-12-18T19:36:19.633Z,11.87
2022-12-18T19:38:49.326Z,11.90
2022-12-18T19:41:19.242Z,12.32
2022-12-18T19:43:48.856Z,12.13
2022-12-18T19:46:21.806Z,9.75
2022-12-18T19:48:51.689Z,13.50
2022-12-18T19:51:24.003Z,12.48
2022-12-18T19:53:58.398Z,10.30
2022-12-18T19:56:31.017Z,15.32
2022-12-18T19:59:00.306Z,11.30
2022-12-18T20:01:32.664Z,9.77
2022-12-18T20:04:01.967Z,13.57
2022-12-18T20:06:34.576Z,9.93
2022-12-18T20:09:08.310Z,11.85
2022-12-18T20:11:42.011Z,14.48
2022-12-18T20:14:11.434Z,11.50
2022-12-18T20:16:42.788Z,11.57
2022-12-18T20:19:14.360Z,9.30
2022-12-18T20:21:44.564Z,7.78
2022-12-18T20:24:13.561Z,10.57
2022-12-18T20:26:43.365Z,11.27
2022-12-18T20:29:12.161Z,11.65
2022-12-18T20:31:42.410Z,8.15
2022-12-18T20:34:11.196Z,11.00
2022-12-18T20:36:41.077Z,13.25
2022-12-18T20:39:12.247Z,11.33
2022-12-18T20:41:42.078Z,10.35
2022-12-18T20:44:23.554Z,12.80
2022-12-18T20:46:57.757Z,11.38
2022-12-18T20:49:28.251Z,10.70
2022-12-18T20:51:59.526Z,9.23
2022-12-18T20:54:29.263Z,10.98
2022-12-18T20:56:58.716Z,10.82
2022-12-18T20:59:27.567Z,12.32
2022-12-18T21:01:58.174Z,10.68
2022-12-18T21:04:27.155Z,7.77
2022-12-18T21:07:02.430Z,9.95
2022-12-18T21:09:37.857Z,8.57
2022-12-18T21:12:33.498Z,10.07
2022-12-18T21:15:11.229Z,10.27
2022-12-18T21:17:44.774Z,7.27
2022-12-18T21:20:17.276Z,11.45
2022-12-18T21:22:47.063Z,9.10
2022-12-18T21:25:15.789Z,12.00
2022-12-18T21:27:44.614Z,8.10
2022-12-18T21:30:15.090Z,9.30
2022-12-18T21:32:45.361Z,10.50
2022-12-18T21:35:14.134Z,10.32
2022-12-18T21:37:42.803Z,9.90
2022-12-18T21:40:14.047Z,7.82
2022-12-18T21:43:00.090Z,8.50
2022-12-18T21:45:28.846Z,10.98
2022-12-18T21:47:59.124Z,10.93
2022-12-18T21:50:27.879Z,12.60
2022-12-18T21:52:56.579Z,14.38
2022-12-18T21:55:25.397Z,12.13
2022-12-18T21:57:56.828Z,9.82
2022-12-18T22:00:25.836Z,11.85
2022-12-18T22:03:16.995Z,11.13
2022-12-18T22:05:44.659Z,10.63
2022-12-18T22:08:13.762Z,10.43
2022-12-18T22:10:42.890Z,10.43
2022-12-18T22:13:12.171Z,7.53
2022-12-18T22:15:40.884Z,9.25
2022-12-18T22:18:09.819Z,10.65
2022-12-18T22:20:38.565Z,8.80
2022-12-18T22:23:09.242Z,10.57
2022-12-18T22:25:40.096Z,7.05
2022-12-18T22:28:26.177Z,9.88
2022-12-18T22:30:59.527Z,8.00
2022-12-18T22:33:29.527Z,10.17
2022-12-18T22:35:58.280Z,7.90
2022-12-18T22:38:28.823Z,7.15
2022-12-18T22:40:57.924Z,9.18
2022-12-18T22:43:26.690Z,7.82
2022-12-18T22:45:55.556Z,5.80
2022-12-18T22:48:24.443Z,8.02
2022-12-18T22:50:59.337Z,7.50
2022-12-18T22:53:29.951Z,8.10
2022-12-18T22:56:02.707Z,9.93
2022-12-18T22:58:32.079Z,7.27
2022-12-18T23:01:00.827Z,5.72
2022-12-18T23:03:29.909Z,8.52
2022-12-18T23:06:06.066Z,8.43
2022-12-18T23:08:36.705Z,8.43
2022-12-18T23:11:06.657Z,6.77
2022-12-18T23:13:37.553Z,7.00
2022-12-18T23:16:19.410Z,8.98
2022-12-18T23:18:51.636Z,6.50
2022-12-18T23:21:25.699Z,7.85
2022-12-18T23:24:00.114Z,8.50
2022-12-18T23:26:32.141Z,5.40
2022-12-18T23:29:24.427Z,5.00
2022-12-18T23:31:55.095Z,7.60
2022-12-18T23:34:25.199Z,7.97
2022-12-18T23:36:56.230Z,6.10
2022-12-18T23:39:29.599Z,6.47
2022-12-18T23:41:59.438Z,5.25
2022-12-18T23:44:28.796Z,6.38
2022-12-18T23:46:57.521Z,4.80
2022-12-18T23:49:26.329Z,5.40
2022-12-18T23:51:55.778Z,6.88
2022-12-18T23:54:33.466Z,7.82
2022-12-18T23:57:03.238Z,6.07
2022-12-18T23:59:32.237Z,13.02
